Terminal Aerodrome Forecast
Issued by NWS Upton, NY

Home | Current Version | Previous Version | Text Only | Print | Product List | Glossary On
Versions: 1 2 3 4 5 6 7 8 9 10 11 12 13 14 15 16 17 18 19 20 21 22 23 24 25 26 27 28 29 30
000
FTUS41 KOKX 201700
TAFJFK
TAF
KJFK 201734Z 2018/2124 20010KT P6SM SCT150 BKN200
     FM210600 20006KT P6SM SCT050 BKN120
     FM211000 15006KT P6SM BKN040 BKN100
     FM212100 11006KT P6SM SCT040 BKN100=

USA.gov is the U.S. government's official web portal to all federal, state and local government web resources and services.